sensor_id;sensor_type;location;lat;lon;timestamp;P1;durP1;ratioP1;P2;durP2;ratioP2
42144;SDS011;27813;43.516;11.890;2023-06-14T04:34:03;12.10;;;4.53;;
42144;SDS011;27813;43.516;11.890;2023-06-14T04:38:10;13.00;;;4.32;;
42144;SDS011;27813;43.516;11.890;2023-06-14T04:42:14;9.32;;;3.28;;
42144;SDS011;27813;43.516;11.890;2023-06-14T04:46:19;6.35;;;3.10;;
42144;SDS011;27813;43.516;11.890;2023-06-14T04:50:23;9.27;;;3.45;;
42144;SDS011;27813;43.516;11.890;2023-06-14T04:54:27;8.70;;;3.08;;
42144;SDS011;27813;43.516;11.890;2023-06-14T04:58:36;8.25;;;3.08;;
42144;SDS011;27813;43.516;11.890;2023-06-14T05:02:41;7.47;;;2.85;;
42144;SDS011;27813;43.516;11.890;2023-06-14T05:06:45;8.18;;;3.17;;
42144;SDS011;27813;43.516;11.890;2023-06-14T05:10:51;8.90;;;2.97;;
42144;SDS011;27813;43.516;11.890;2023-06-14T05:14:57;9.85;;;3.20;;
42144;SDS011;27813;43.516;11.890;2023-06-14T05:19:03;7.03;;;2.92;;
42144;SDS011;27813;43.516;11.890;2023-06-14T05:23:10;6.93;;;3.40;;
42144;SDS011;27813;43.516;11.890;2023-06-14T05:27:18;8.73;;;3.90;;
42144;SDS011;27813;43.516;11.890;2023-06-14T05:31:23;10.43;;;4.43;;
42144;SDS011;27813;43.516;11.890;2023-06-14T05:35:28;19.55;;;7.63;;
42144;SDS011;27813;43.516;11.890;2023-06-14T05:39:33;26.08;;;9.50;;
42144;SDS011;27813;43.516;11.890;2023-06-14T05:43:36;12.05;;;6.07;;
42144;SDS011;27813;43.516;11.890;2023-06-14T05:47:41;8.40;;;4.47;;
42144;SDS011;27813;43.516;11.890;2023-06-14T05:51:45;10.52;;;4.45;;
42144;SDS011;27813;43.516;11.890;2023-06-14T05:55:49;18.80;;;7.35;;
42144;SDS011;27813;43.516;11.890;2023-06-14T05:59:58;17.83;;;8.82;;
42144;SDS011;27813;43.516;11.890;2023-06-14T06:04:02;20.83;;;10.20;;
42144;SDS011;27813;43.516;11.890;2023-06-14T06:08:06;14.43;;;9.80;;
42144;SDS011;27813;43.516;11.890;2023-06-14T06:12:10;9.85;;;8.00;;
42144;SDS011;27813;43.516;11.890;2023-06-14T06:16:14;10.65;;;8.90;;
42144;SDS011;27813;43.516;11.890;2023-06-14T06:20:18;11.65;;;8.48;;
42144;SDS011;27813;43.516;11.890;2023-06-14T06:29:19;7.50;;;6.75;;
42144;SDS011;27813;43.516;11.890;2023-06-14T06:33:23;6.05;;;5.15;;
42144;SDS011;27813;43.516;11.890;2023-06-14T06:37:28;5.75;;;3.65;;
42144;SDS011;27813;43.516;11.890;2023-06-14T06:41:47;3.72;;;2.83;;
42144;SDS011;27813;43.516;11.890;2023-06-14T06:46:02;3.00;;;2.38;;
42144;SDS011;27813;43.516;11.890;2023-06-14T06:50:06;3.30;;;2.20;;
42144;SDS011;27813;43.516;11.890;2023-06-14T06:54:11;3.53;;;2.33;;
42144;SDS011;27813;43.516;11.890;2023-06-14T06:58:15;1.98;;;1.67;;
42144;SDS011;27813;43.516;11.890;2023-06-14T07:02:22;2.28;;;1.90;;
42144;SDS011;27813;43.516;11.890;2023-06-14T07:06:26;2.58;;;1.70;;
42144;SDS011;27813;43.516;11.890;2023-06-14T07:10:30;2.20;;;1.73;;
42144;SDS011;27813;43.516;11.890;2023-06-14T07:14:34;3.17;;;1.50;;
42144;SDS011;27813;43.516;11.890;2023-06-14T07:18:39;2.40;;;1.60;;
42144;SDS011;27813;43.516;11.890;2023-06-14T07:22:43;2.10;;;1.38;;
42144;SDS011;27813;43.516;11.890;2023-06-14T07:26:47;2.88;;;1.70;;
42144;SDS011;27813;43.516;11.890;2023-06-14T07:30:54;2.65;;;1.40;;
42144;SDS011;27813;43.516;11.890;2023-06-14T07:34:58;1.80;;;1.50;;
42144;SDS011;27813;43.516;11.890;2023-06-14T07:39:02;4.22;;;1.63;;
42144;SDS011;27813;43.516;11.890;2023-06-14T07:43:07;1.67;;;1.45;;
42144;SDS011;27813;43.516;11.890;2023-06-14T07:47:11;1.80;;;1.50;;
42144;SDS011;27813;43.516;11.890;2023-06-14T07:51:15;4.30;;;1.60;;
42144;SDS011;27813;43.516;11.890;2023-06-14T07:55:23;1.60;;;1.38;;
42144;SDS011;27813;43.516;11.890;2023-06-14T07:59:32;1.58;;;1.30;;
42144;SDS011;27813;43.516;11.890;2023-06-14T08:03:36;1.90;;;1.40;;
42144;SDS011;27813;43.516;11.890;2023-06-14T08:07:40;2.38;;;1.35;;
42144;SDS011;27813;43.516;11.890;2023-06-14T08:11:45;1.80;;;1.25;;
42144;SDS011;27813;43.516;11.890;2023-06-14T08:15:49;1.73;;;1.60;;
42144;SDS011;27813;43.516;11.890;2023-06-14T08:19:54;1.40;;;1.10;;
42144;SDS011;27813;43.516;11.890;2023-06-14T08:24:00;2.40;;;1.35;;
42144;SDS011;27813;43.516;11.890;2023-06-14T08:28:04;2.90;;;1.25;;
42144;SDS011;27813;43.516;11.890;2023-06-14T08:32:10;4.00;;;1.95;;
42144;SDS011;27813;43.516;11.890;2023-06-14T08:36:14;1.83;;;1.40;;
42144;SDS011;27813;43.516;11.890;2023-06-14T08:40:20;1.67;;;1.30;;
42144;SDS011;27813;43.516;11.890;2023-06-14T08:44:26;2.15;;;1.30;;
42144;SDS011;27813;43.516;11.890;2023-06-14T08:48:31;2.42;;;1.30;;
42144;SDS011;27813;43.516;11.890;2023-06-14T08:52:37;1.98;;;1.20;;
42144;SDS011;27813;43.516;11.890;2023-06-14T08:56:43;2.00;;;1.35;;
42144;SDS011;27813;43.516;11.890;2023-06-14T09:00:48;2.92;;;1.30;;
42144;SDS011;27813;43.516;11.890;2023-06-14T09:04:53;1.85;;;1.40;;
42144;SDS011;27813;43.516;11.890;2023-06-14T09:08:59;1.70;;;1.20;;
42144;SDS011;27813;43.516;11.890;2023-06-14T09:13:03;1.52;;;0.93;;
42144;SDS011;27813;43.516;11.890;2023-06-14T09:17:07;3.17;;;1.30;;
42144;SDS011;27813;43.516;11.890;2023-06-14T09:21:11;1.40;;;1.10;;
42144;SDS011;27813;43.516;11.890;2023-06-14T09:25:15;3.05;;;1.20;;
42144;SDS011;27813;43.516;11.890;2023-06-14T09:29:40;1.35;;;1.05;;
42144;SDS011;27813;43.516;11.890;2023-06-14T09:33:45;2.35;;;1.30;;
42144;SDS011;27813;43.516;11.890;2023-06-14T09:37:53;2.85;;;1.20;;
42144;SDS011;27813;43.516;11.890;2023-06-14T09:41:59;1.80;;;1.30;;
42144;SDS011;27813;43.516;11.890;2023-06-14T09:46:03;2.22;;;1.30;;
42144;SDS011;27813;43.516;11.890;2023-06-14T09:50:11;2.92;;;1.25;;
42144;SDS011;27813;43.516;11.890;2023-06-14T09:54:16;1.70;;;1.10;;
42144;SDS011;27813;43.516;11.890;2023-06-14T09:58:23;1.60;;;1.20;;
42144;SDS011;27813;43.516;11.890;2023-06-14T10:02:34;1.80;;;1.00;;
42144;SDS011;27813;43.516;11.890;2023-06-14T10:06:43;1.88;;;1.40;;
42144;SDS011;27813;43.516;11.890;2023-06-14T10:10:50;1.67;;;1.00;;
42144;SDS011;27813;43.516;11.890;2023-06-14T10:14:55;1.40;;;1.10;;
42144;SDS011;27813;43.516;11.890;2023-06-14T10:23:56;1.40;;;1.10;;
42144;SDS011;27813;43.516;11.890;2023-06-14T10:32:28;1.63;;;1.05;;
42144;SDS011;27813;43.516;11.890;2023-06-14T10:36:43;2.25;;;1.02;;
42144;SDS011;27813;43.516;11.890;2023-06-14T10:40:52;2.05;;;1.40;;
42144;SDS011;27813;43.516;11.890;2023-06-14T10:45:00;1.65;;;1.10;;
42144;SDS011;27813;43.516;11.890;2023-06-14T10:49:06;1.75;;;1.00;;
42144;SDS011;27813;43.516;11.890;2023-06-14T10:53:22;3.05;;;1.20;;
42144;SDS011;27813;43.516;11.890;2023-06-14T10:57:29;2.40;;;1.25;;
42144;SDS011;27813;43.516;11.890;2023-06-14T11:06:34;2.45;;;1.20;;
42144;SDS011;27813;43.516;11.890;2023-06-14T11:10:52;1.52;;;1.13;;
42144;SDS011;27813;43.516;11.890;2023-06-14T11:20:18;2.58;;;0.93;;
42144;SDS011;27813;43.516;11.890;2023-06-14T11:24:27;1.38;;;1.02;;
42144;SDS011;27813;43.516;11.890;2023-06-14T11:28:44;1.45;;;1.00;;
42144;SDS011;27813;43.516;11.890;2023-06-14T11:32:50;1.70;;;1.25;;
42144;SDS011;27813;43.516;11.890;2023-06-14T11:37:01;1.52;;;0.90;;
42144;SDS011;27813;43.516;11.890;2023-06-14T11:41:12;1.63;;;1.05;;
42144;SDS011;27813;43.516;11.890;2023-06-14T11:45:20;1.52;;;1.20;;
42144;SDS011;27813;43.516;11.890;2023-06-14T11:49:27;1.55;;;1.23;;
42144;SDS011;27813;43.516;11.890;2023-06-14T11:53:31;2.95;;;1.33;;
42144;SDS011;27813;43.516;11.890;2023-06-14T11:57:37;1.77;;;1.40;;
42144;SDS011;27813;43.516;11.890;2023-06-14T12:01:47;1.92;;;1.55;;
42144;SDS011;27813;43.516;11.890;2023-06-14T12:06:11;3.20;;;1.95;;
42144;SDS011;27813;43.516;11.890;2023-06-14T12:10:17;3.70;;;1.80;;
42144;SDS011;27813;43.516;11.890;2023-06-14T12:14:29;2.78;;;1.90;;
42144;SDS011;27813;43.516;11.890;2023-06-14T12:27:01;2.88;;;2.10;;
42144;SDS011;27813;43.516;11.890;2023-06-14T12:31:12;2.40;;;2.00;;
42144;SDS011;27813;43.516;11.890;2023-06-14T12:39:29;4.13;;;1.70;;
42144;SDS011;27813;43.516;11.890;2023-06-14T12:43:36;2.30;;;1.73;;
42144;SDS011;27813;43.516;11.890;2023-06-14T12:47:41;2.13;;;1.83;;
42144;SDS011;27813;43.516;11.890;2023-06-14T12:51:45;2.53;;;1.73;;
42144;SDS011;27813;43.516;11.890;2023-06-14T12:55:50;1.88;;;1.60;;
42144;SDS011;27813;43.516;11.890;2023-06-14T12:59:54;3.53;;;1.75;;
42144;SDS011;27813;43.516;11.890;2023-06-14T13:03:58;2.30;;;1.60;;
42144;SDS011;27813;43.516;11.890;2023-06-14T13:08:02;3.60;;;1.95;;
42144;SDS011;27813;43.516;11.890;2023-06-14T13:12:08;2.63;;;1.20;;
42144;SDS011;27813;43.516;11.890;2023-06-14T13:16:16;2.35;;;1.65;;
42144;SDS011;27813;43.516;11.890;2023-06-14T13:20:22;2.05;;;1.20;;
42144;SDS011;27813;43.516;11.890;2023-06-14T13:24:26;2.60;;;1.60;;
42144;SDS011;27813;43.516;11.890;2023-06-14T13:28:33;2.15;;;1.40;;
42144;SDS011;27813;43.516;11.890;2023-06-14T13:32:38;4.10;;;1.40;;
42144;SDS011;27813;43.516;11.890;2023-06-14T13:36:42;4.53;;;1.52;;
42144;SDS011;27813;43.516;11.890;2023-06-14T13:40:47;2.38;;;1.10;;
42144;SDS011;27813;43.516;11.890;2023-06-14T13:44:51;5.75;;;2.10;;
42144;SDS011;27813;43.516;11.890;2023-06-14T13:48:56;1.65;;;1.20;;
42144;SDS011;27813;43.516;11.890;2023-06-14T13:53:01;1.88;;;1.20;;
42144;SDS011;27813;43.516;11.890;2023-06-14T13:57:05;2.20;;;1.10;;
42144;SDS011;27813;43.516;11.890;2023-06-14T14:01:09;1.50;;;1.17;;
42144;SDS011;27813;43.516;11.890;2023-06-14T14:05:16;1.60;;;1.10;;
42144;SDS011;27813;43.516;11.890;2023-06-14T14:09:21;2.40;;;1.10;;
42144;SDS011;27813;43.516;11.890;2023-06-14T14:13:25;1.95;;;1.00;;
42144;SDS011;27813;43.516;11.890;2023-06-14T14:17:29;1.63;;;1.17;;
42144;SDS011;27813;43.516;11.890;2023-06-14T14:21:34;1.92;;;1.52;;
42144;SDS011;27813;43.516;11.890;2023-06-14T14:25:39;1.95;;;1.20;;
42144;SDS011;27813;43.516;11.890;2023-06-14T14:29:43;1.83;;;1.10;;
42144;SDS011;27813;43.516;11.890;2023-06-14T14:33:47;1.10;;;0.85;;
42144;SDS011;27813;43.516;11.890;2023-06-14T14:37:51;2.50;;;1.52;;
42144;SDS011;27813;43.516;11.890;2023-06-14T14:41:55;2.17;;;1.30;;
42144;SDS011;27813;43.516;11.890;2023-06-14T14:45:59;2.60;;;1.73;;
42144;SDS011;27813;43.516;11.890;2023-06-14T14:50:04;2.00;;;1.30;;
42144;SDS011;27813;43.516;11.890;2023-06-14T14:54:12;2.28;;;1.40;;
42144;SDS011;27813;43.516;11.890;2023-06-14T14:58:16;3.28;;;1.30;;
42144;SDS011;27813;43.516;11.890;2023-06-14T15:02:21;2.10;;;1.25;;
42144;SDS011;27813;43.516;11.890;2023-06-14T15:06:27;1.58;;;1.10;;
42144;SDS011;27813;43.516;11.890;2023-06-14T15:10:32;2.22;;;1.42;;
42144;SDS011;27813;43.516;11.890;2023-06-14T15:14:36;3.10;;;1.45;;
42144;SDS011;27813;43.516;11.890;2023-06-14T15:18:41;2.33;;;1.60;;
42144;SDS011;27813;43.516;11.890;2023-06-14T15:22:45;7.45;;;2.38;;
42144;SDS011;27813;43.516;11.890;2023-06-14T15:26:52;5.30;;;2.28;;
42144;SDS011;27813;43.516;11.890;2023-06-14T15:30:56;10.02;;;2.75;;
42144;SDS011;27813;43.516;11.890;2023-06-14T15:35:01;11.50;;;2.50;;
42144;SDS011;27813;43.516;11.890;2023-06-14T15:39:05;13.85;;;2.55;;
42144;SDS011;27813;43.516;11.890;2023-06-14T15:43:09;11.57;;;2.60;;
42144;SDS011;27813;43.516;11.890;2023-06-14T15:47:14;3.22;;;2.10;;
42144;SDS011;27813;43.516;11.890;2023-06-14T15:51:18;6.88;;;2.55;;
42144;SDS011;27813;43.516;11.890;2023-06-14T15:55:23;3.13;;;2.33;;
42144;SDS011;27813;43.516;11.890;2023-06-14T15:59:27;4.95;;;2.40;;
42144;SDS011;27813;43.516;11.890;2023-06-14T16:03:32;4.43;;;3.17;;
42144;SDS011;27813;43.516;11.890;2023-06-14T16:07:36;4.43;;;2.55;;
42144;SDS011;27813;43.516;11.890;2023-06-14T16:11:40;10.68;;;3.38;;
42144;SDS011;27813;43.516;11.890;2023-06-14T16:15:44;17.38;;;3.97;;
42144;SDS011;27813;43.516;11.890;2023-06-14T16:19:48;6.60;;;3.20;;
42144;SDS011;27813;43.516;11.890;2023-06-14T16:23:53;7.05;;;3.38;;
42144;SDS011;27813;43.516;11.890;2023-06-14T16:27:58;5.45;;;4.18;;
42144;SDS011;27813;43.516;11.890;2023-06-14T16:32:02;4.32;;;3.30;;
42144;SDS011;27813;43.516;11.890;2023-06-14T16:36:07;6.25;;;3.65;;
42144;SDS011;27813;43.516;11.890;2023-06-14T16:40:11;5.50;;;3.20;;
42144;SDS011;27813;43.516;11.890;2023-06-14T16:44:16;4.32;;;3.08;;
42144;SDS011;27813;43.516;11.890;2023-06-14T16:48:21;10.07;;;3.05;;
42144;SDS011;27813;43.516;11.890;2023-06-14T16:52:26;4.57;;;2.78;;
42144;SDS011;27813;43.516;11.890;2023-06-14T16:56:30;3.55;;;2.70;;
42144;SDS011;27813;43.516;11.890;2023-06-14T17:00:34;3.85;;;2.92;;
42144;SDS011;27813;43.516;11.890;2023-06-14T17:04:38;2.97;;;2.45;;
42144;SDS011;27813;43.516;11.890;2023-06-14T17:08:43;5.15;;;2.78;;
42144;SDS011;27813;43.516;11.890;2023-06-14T17:12:47;4.50;;;2.50;;
42144;SDS011;27813;43.516;11.890;2023-06-14T17:16:51;4.40;;;2.58;;
42144;SDS011;27813;43.516;11.890;2023-06-14T17:20:56;3.72;;;2.45;;
42144;SDS011;27813;43.516;11.890;2023-06-14T17:25:00;2.90;;;2.03;;
42144;SDS011;27813;43.516;11.890;2023-06-14T17:29:04;3.88;;;2.20;;
42144;SDS011;27813;43.516;11.890;2023-06-14T17:33:09;3.47;;;2.05;;
42144;SDS011;27813;43.516;11.890;2023-06-14T17:37:17;3.20;;;2.25;;
42144;SDS011;27813;43.516;11.890;2023-06-14T17:41:21;4.15;;;2.35;;
42144;SDS011;27813;43.516;11.890;2023-06-14T17:45:26;4.35;;;2.50;;
42144;SDS011;27813;43.516;11.890;2023-06-14T17:49:31;4.03;;;2.58;;
42144;SDS011;27813;43.516;11.890;2023-06-14T17:53:35;4.25;;;2.45;;
42144;SDS011;27813;43.516;11.890;2023-06-14T17:57:39;6.55;;;2.50;;
42144;SDS011;27813;43.516;11.890;2023-06-14T18:01:43;6.55;;;4.25;;
42144;SDS011;27813;43.516;11.890;2023-06-14T18:05:48;6.60;;;4.53;;
42144;SDS011;27813;43.516;11.890;2023-06-14T18:09:52;6.10;;;2.92;;
42144;SDS011;27813;43.516;11.890;2023-06-14T18:13:56;3.13;;;2.17;;
42144;SDS011;27813;43.516;11.890;2023-06-14T18:18:01;3.33;;;2.50;;
42144;SDS011;27813;43.516;11.890;2023-06-14T18:22:06;3.67;;;3.08;;
42144;SDS011;27813;43.516;11.890;2023-06-14T18:26:10;4.82;;;2.47;;
42144;SDS011;27813;43.516;11.890;2023-06-14T18:30:16;3.55;;;2.90;;
42144;SDS011;27813;43.516;11.890;2023-06-14T18:34:22;3.60;;;2.65;;
42144;SDS011;27813;43.516;11.890;2023-06-14T18:38:27;3.35;;;2.60;;
42144;SDS011;27813;43.516;11.890;2023-06-14T18:42:31;2.85;;;2.47;;
42144;SDS011;27813;43.516;11.890;2023-06-14T18:46:35;4.38;;;2.80;;
42144;SDS011;27813;43.516;11.890;2023-06-14T18:50:40;3.28;;;2.47;;
42144;SDS011;27813;43.516;11.890;2023-06-14T18:54:45;2.58;;;2.08;;
42144;SDS011;27813;43.516;11.890;2023-06-14T18:58:50;2.58;;;2.17;;
42144;SDS011;27813;43.516;11.890;2023-06-14T19:02:54;3.55;;;2.17;;
42144;SDS011;27813;43.516;11.890;2023-06-14T19:06:58;2.38;;;2.13;;
42144;SDS011;27813;43.516;11.890;2023-06-14T19:11:04;2.85;;;2.13;;
42144;SDS011;27813;43.516;11.890;2023-06-14T19:15:12;3.22;;;1.90;;
42144;SDS011;27813;43.516;11.890;2023-06-14T19:19:20;7.15;;;5.13;;
42144;SDS011;27813;43.516;11.890;2023-06-14T19:23:26;4.38;;;2.60;;
42144;SDS011;27813;43.516;11.890;2023-06-14T19:27:39;3.10;;;2.15;;
42144;SDS011;27813;43.516;11.890;2023-06-14T19:31:51;4.93;;;2.20;;
42144;SDS011;27813;43.516;11.890;2023-06-14T19:36:04;4.80;;;2.67;;
42144;SDS011;27813;43.516;11.890;2023-06-14T19:40:11;4.22;;;2.17;;
42144;SDS011;27813;43.516;11.890;2023-06-14T19:44:26;4.70;;;2.50;;
42144;SDS011;27813;43.516;11.890;2023-06-14T19:48:31;3.10;;;2.50;;
42144;SDS011;27813;43.516;11.890;2023-06-14T19:52:36;4.10;;;2.25;;
42144;SDS011;27813;43.516;11.890;2023-06-14T19:56:44;3.05;;;2.30;;
42144;SDS011;27813;43.516;11.890;2023-06-14T20:00:52;2.92;;;2.17;;
42144;SDS011;27813;43.516;11.890;2023-06-14T20:04:57;3.22;;;1.80;;
42144;SDS011;27813;43.516;11.890;2023-06-14T20:09:01;3.17;;;2.25;;
42144;SDS011;27813;43.516;11.890;2023-06-14T20:13:16;3.08;;;1.70;;
42144;SDS011;27813;43.516;11.890;2023-06-14T20:17:22;2.63;;;1.88;;
42144;SDS011;27813;43.516;11.890;2023-06-14T20:21:27;2.60;;;1.90;;
42144;SDS011;27813;43.516;11.890;2023-06-14T20:25:36;4.72;;;2.33;;
42144;SDS011;27813;43.516;11.890;2023-06-14T20:29:40;3.03;;;2.17;;
42144;SDS011;27813;43.516;11.890;2023-06-14T20:33:44;3.33;;;1.73;;
42144;SDS011;27813;43.516;11.890;2023-06-14T20:37:56;6.45;;;2.25;;
42144;SDS011;27813;43.516;11.890;2023-06-14T20:42:03;4.53;;;2.00;;
42144;SDS011;27813;43.516;11.890;2023-06-14T20:46:36;3.92;;;1.90;;
42144;SDS011;27813;43.516;11.890;2023-06-14T20:50:54;3.30;;;1.65;;
42144;SDS011;27813;43.516;11.890;2023-06-14T20:54:59;3.47;;;1.70;;
42144;SDS011;27813;43.516;11.890;2023-06-14T20:59:03;3.08;;;1.73;;
42144;SDS011;27813;43.516;11.890;2023-06-14T21:03:08;3.10;;;1.80;;
42144;SDS011;27813;43.516;11.890;2023-06-14T21:07:16;3.83;;;2.00;;
42144;SDS011;27813;43.516;11.890;2023-06-14T21:11:42;3.28;;;1.80;;
42144;SDS011;27813;43.516;11.890;2023-06-14T21:15:49;5.25;;;2.45;;
42144;SDS011;27813;43.516;11.890;2023-06-14T21:19:54;2.30;;;1.70;;
42144;SDS011;27813;43.516;11.890;2023-06-14T21:24:01;3.85;;;1.90;;
42144;SDS011;27813;43.516;11.890;2023-06-14T21:28:05;2.30;;;1.90;;
42144;SDS011;27813;43.516;11.890;2023-06-14T21:32:14;2.78;;;1.45;;
42144;SDS011;27813;43.516;11.890;2023-06-14T21:36:19;7.63;;;1.90;;
42144;SDS011;27813;43.516;11.890;2023-06-14T21:40:23;2.58;;;1.83;;
42144;SDS011;27813;43.516;11.890;2023-06-14T21:44:28;3.08;;;1.63;;
42144;SDS011;27813;43.516;11.890;2023-06-14T21:48:32;2.33;;;1.70;;
42144;SDS011;27813;43.516;11.890;2023-06-14T21:52:36;15.57;;;2.50;;
42144;SDS011;27813;43.516;11.890;2023-06-14T21:56:40;2.10;;;1.67;;
42144;SDS011;27813;43.516;11.890;2023-06-14T22:00:44;2.63;;;1.88;;
42144;SDS011;27813;43.516;11.890;2023-06-14T22:04:50;2.25;;;1.60;;
42144;SDS011;27813;43.516;11.890;2023-06-14T22:08:54;2.28;;;1.38;;
42144;SDS011;27813;43.516;11.890;2023-06-14T22:12:59;7.88;;;2.17;;
42144;SDS011;27813;43.516;11.890;2023-06-14T22:17:04;3.15;;;1.50;;
42144;SDS011;27813;43.516;11.890;2023-06-14T22:21:08;2.50;;;1.60;;
42144;SDS011;27813;43.516;11.890;2023-06-14T22:25:17;3.40;;;1.70;;
42144;SDS011;27813;43.516;11.890;2023-06-14T22:29:22;4.38;;;2.10;;
42144;SDS011;27813;43.516;11.890;2023-06-14T22:33:29;2.35;;;1.83;;
42144;SDS011;27813;43.516;11.890;2023-06-14T22:37:33;4.50;;;2.00;;
42144;SDS011;27813;43.516;11.890;2023-06-14T22:41:40;2.17;;;1.77;;
42144;SDS011;27813;43.516;11.890;2023-06-14T22:45:45;2.30;;;1.83;;
42144;SDS011;27813;43.516;11.890;2023-06-14T22:49:51;2.10;;;1.67;;
42144;SDS011;27813;43.516;11.890;2023-06-14T22:54:10;2.55;;;1.92;;
42144;SDS011;27813;43.516;11.890;2023-06-14T22:58:15;3.67;;;1.92;;
42144;SDS011;27813;43.516;11.890;2023-06-14T23:02:20;2.75;;;1.88;;
42144;SDS011;27813;43.516;11.890;2023-06-14T23:06:25;3.45;;;1.67;;
42144;SDS011;27813;43.516;11.890;2023-06-14T23:10:29;2.95;;;1.80;;
42144;SDS011;27813;43.516;11.890;2023-06-14T23:14:34;2.70;;;1.95;;
42144;SDS011;27813;43.516;11.890;2023-06-14T23:18:38;3.70;;;1.90;;
42144;SDS011;27813;43.516;11.890;2023-06-14T23:22:42;2.10;;;1.50;;
42144;SDS011;27813;43.516;11.890;2023-06-14T23:26:46;4.78;;;1.90;;
